createdAt,value
2018-08-31T00:01:03.848Z,31.30
2018-08-31T00:03:44.906Z,31.29
2018-08-31T00:06:26.373Z,31.29
2018-08-31T00:09:09.938Z,31.29
2018-08-31T00:12:06.130Z,31.28
2018-08-31T00:14:38.041Z,31.24
2018-08-31T00:17:10.329Z,31.24
2018-08-31T00:19:41.970Z,31.24
2018-08-31T00:22:14.488Z,31.25
2018-08-31T00:26:58.878Z,31.25
2018-08-31T00:30:39.822Z,31.26
2018-08-31T00:33:20.985Z,31.25
2018-08-31T00:38:05.941Z,31.24
2018-08-31T00:40:58.155Z,31.22
2018-08-31T00:43:59.964Z,31.20
2018-08-31T00:46:31.866Z,31.20
2018-08-31T00:49:04.197Z,31.19
2018-08-31T00:51:36.064Z,31.20
2018-08-31T00:54:07.917Z,31.19
2018-08-31T00:56:39.798Z,31.19
2018-08-31T00:59:12.112Z,31.21
2018-08-31T01:01:44.311Z,31.20
2018-08-31T01:04:16.668Z,31.19
2018-08-31T01:06:48.319Z,31.20
2018-08-31T01:09:20.236Z,31.20
2018-08-31T01:11:51.903Z,31.22
2018-08-31T01:14:24.112Z,31.21
2018-08-31T01:16:55.924Z,31.20
2018-08-31T01:19:28.146Z,31.19
2018-08-31T01:22:00.235Z,31.18
2018-08-31T01:24:32.739Z,31.19
2018-08-31T01:27:04.701Z,31.18
2018-08-31T01:29:36.526Z,31.16
2018-08-31T01:32:08.936Z,31.16
2018-08-31T01:34:42.095Z,31.17
2018-08-31T01:37:13.957Z,31.18
2018-08-31T01:39:45.729Z,31.16
2018-08-31T01:42:17.579Z,31.17
2018-08-31T01:44:49.836Z,31.15
2018-08-31T01:47:21.857Z,31.16
2018-08-31T01:49:53.724Z,31.15
2018-08-31T01:52:25.652Z,31.17
2018-08-31T01:54:57.665Z,31.15
2018-08-31T01:57:29.393Z,31.15
2018-08-31T02:00:01.501Z,31.08
2018-08-31T02:02:33.461Z,31.09
2018-08-31T02:05:05.423Z,31.09
2018-08-31T02:07:37.470Z,31.10
2018-08-31T02:10:09.673Z,31.10
2018-08-31T02:12:41.510Z,31.11
2018-08-31T02:15:15.094Z,31.11
2018-08-31T02:17:47.048Z,31.14
2018-08-31T02:20:19.035Z,31.13
2018-08-31T02:22:50.774Z,31.12
2018-08-31T02:25:23.621Z,31.10
2018-08-31T02:27:55.980Z,31.13
2018-08-31T02:30:28.018Z,31.13
2018-08-31T02:33:00.075Z,31.09
2018-08-31T02:35:31.927Z,31.08
2018-08-31T02:38:03.835Z,31.07
2018-08-31T02:40:35.831Z,31.09
2018-08-31T02:43:08.101Z,31.07
2018-08-31T02:45:39.704Z,31.08
2018-08-31T02:48:11.714Z,31.09
2018-08-31T02:50:43.654Z,31.07
2018-08-31T02:53:15.500Z,31.07
2018-08-31T02:55:47.180Z,31.06
2018-08-31T02:58:19.122Z,31.08
2018-08-31T03:00:51.789Z,31.04
2018-08-31T03:03:23.899Z,31.04
2018-08-31T03:05:55.839Z,31.03
2018-08-31T03:08:27.939Z,31.05
2018-08-31T03:10:59.660Z,31.07
2018-08-31T03:13:31.726Z,31.04
2018-08-31T03:16:03.560Z,31.03
2018-08-31T03:18:35.547Z,31.05
2018-08-31T03:21:07.198Z,31.06
2018-08-31T03:23:39.091Z,31.03
2018-08-31T03:26:11.079Z,31.04
2018-08-31T03:28:42.776Z,31.03
2018-08-31T03:31:14.892Z,31.02
2018-08-31T03:33:46.863Z,31.02
2018-08-31T03:36:19.040Z,31.06
2018-08-31T03:38:51.159Z,31.03
2018-08-31T03:41:22.924Z,31.02
2018-08-31T03:43:54.624Z,31.00
2018-08-31T03:46:26.674Z,31.00
2018-08-31T03:48:58.681Z,31.01
2018-08-31T03:51:30.690Z,31.05
2018-08-31T03:54:02.309Z,31.02
2018-08-31T03:56:34.242Z,31.01
2018-08-31T03:59:06.629Z,31.01
2018-08-31T04:01:39.417Z,31.01
2018-08-31T04:04:11.313Z,31.03
2018-08-31T04:06:43.209Z,30.92
2018-08-31T04:09:15.206Z,31.01
2018-08-31T04:11:46.974Z,30.94
2018-08-31T04:14:19.579Z,31.00
2018-08-31T04:16:51.614Z,30.84
2018-08-31T04:19:23.749Z,30.94
2018-08-31T04:21:55.510Z,30.87
2018-08-31T04:24:27.259Z,30.87
2018-08-31T04:26:59.103Z,30.91
2018-08-31T04:29:30.821Z,30.95
2018-08-31T04:32:03.006Z,30.98
2018-08-31T04:34:35.399Z,30.98
2018-08-31T04:37:07.885Z,31.00
2018-08-31T04:39:39.862Z,30.96
2018-08-31T04:42:11.817Z,30.96
2018-08-31T04:44:43.912Z,30.95
2018-08-31T04:47:16.337Z,30.95
2018-08-31T04:49:48.138Z,30.84
2018-08-31T04:52:20.032Z,30.84
2018-08-31T04:54:51.964Z,30.91
2018-08-31T04:57:23.827Z,30.92
2018-08-31T04:59:55.594Z,30.91
2018-08-31T05:02:28.563Z,30.90
2018-08-31T05:05:00.820Z,30.90
2018-08-31T05:07:33.066Z,30.90
2018-08-31T05:10:04.749Z,30.91
2018-08-31T05:12:36.610Z,30.86
2018-08-31T05:15:08.323Z,30.88
2018-08-31T05:17:40.145Z,30.90
2018-08-31T05:20:11.865Z,30.92
2018-08-31T05:22:44.274Z,30.91
2018-08-31T05:25:16.203Z,30.91
2018-08-31T05:27:48.058Z,30.92
2018-08-31T05:30:20.253Z,30.92
2018-08-31T05:32:52.497Z,30.93
2018-08-31T05:35:24.904Z,30.93
2018-08-31T05:37:56.739Z,30.96
2018-08-31T05:40:28.587Z,30.96
2018-08-31T05:43:00.636Z,30.96
2018-08-31T05:45:32.675Z,30.94
2018-08-31T05:48:04.309Z,30.95
2018-08-31T05:50:36.302Z,30.93
2018-08-31T05:53:08.143Z,30.93
2018-08-31T05:55:40.415Z,30.96
2018-08-31T05:58:12.010Z,30.95
2018-08-31T06:00:43.939Z,30.98
2018-08-31T06:03:16.222Z,30.99
2018-08-31T06:05:48.080Z,30.99
2018-08-31T06:08:19.948Z,30.98
2018-08-31T06:10:52.268Z,30.97
2018-08-31T06:13:24.216Z,30.94
2018-08-31T06:15:56.405Z,30.96
2018-08-31T06:18:28.399Z,30.97
2018-08-31T06:21:00.365Z,30.95
2018-08-31T06:23:32.307Z,30.96
2018-08-31T06:26:03.822Z,30.93
2018-08-31T06:28:35.490Z,30.95
2018-08-31T06:31:07.339Z,30.95
2018-08-31T06:33:39.334Z,30.97
2018-08-31T06:36:11.108Z,30.94
2018-08-31T06:38:42.844Z,30.90
2018-08-31T06:41:14.820Z,30.92
2018-08-31T06:43:46.825Z,30.93
2018-08-31T06:46:18.861Z,30.93
2018-08-31T06:48:50.677Z,30.91
2018-08-31T06:51:22.570Z,30.91
2018-08-31T06:53:54.735Z,30.91
2018-08-31T06:56:26.754Z,30.91
2018-08-31T06:58:58.622Z,30.91
2018-08-31T07:01:30.997Z,30.91
2018-08-31T07:04:03.597Z,30.90
2018-08-31T07:06:35.710Z,30.90
2018-08-31T07:09:10.000Z,30.84
2018-08-31T07:11:42.046Z,30.88
2018-08-31T07:14:14.108Z,30.91
2018-08-31T07:16:45.949Z,30.92
2018-08-31T07:19:17.931Z,30.91
2018-08-31T07:21:49.939Z,30.92
2018-08-31T07:24:21.791Z,30.92
2018-08-31T07:26:53.716Z,30.91
2018-08-31T07:29:25.564Z,30.94
2018-08-31T07:31:57.550Z,30.94
2018-08-31T07:34:29.094Z,30.93
2018-08-31T07:37:01.114Z,30.94
2018-08-31T07:39:33.533Z,30.93
2018-08-31T07:42:05.624Z,30.92
2018-08-31T07:44:37.596Z,30.92
2018-08-31T07:47:10.539Z,30.95
2018-08-31T07:49:42.466Z,30.94
2018-08-31T07:52:14.267Z,30.95
2018-08-31T07:54:46.492Z,30.93
2018-08-31T07:57:18.315Z,30.93
2018-08-31T07:59:50.105Z,30.93
2018-08-31T08:02:21.957Z,30.95
2018-08-31T08:04:54.348Z,30.95
2018-08-31T08:07:26.544Z,30.96
2018-08-31T08:09:58.646Z,30.96
2018-08-31T08:12:30.548Z,30.96
2018-08-31T08:15:02.230Z,30.97
2018-08-31T08:17:33.947Z,30.97
2018-08-31T08:20:06.190Z,30.98
2018-08-31T08:22:38.009Z,30.98
2018-08-31T08:25:10.222Z,30.98
2018-08-31T08:27:42.866Z,30.98
2018-08-31T08:30:14.793Z,30.97
2018-08-31T08:32:46.727Z,30.98
2018-08-31T08:35:19.072Z,30.98
2018-08-31T08:37:50.544Z,30.98
2018-08-31T08:40:22.491Z,30.97
2018-08-31T08:42:54.472Z,30.93
2018-08-31T08:45:26.372Z,30.96
2018-08-31T08:47:58.238Z,30.98
2018-08-31T08:50:29.975Z,30.98
2018-08-31T08:53:02.851Z,30.98
2018-08-31T08:55:35.500Z,30.96
2018-08-31T08:58:07.953Z,30.94
2018-08-31T09:00:40.060Z,30.94
2018-08-31T09:03:11.768Z,30.95
2018-08-31T09:05:43.505Z,30.94
2018-08-31T09:08:15.560Z,30.95
2018-08-31T09:10:47.558Z,30.95
2018-08-31T09:13:19.451Z,30.95
2018-08-31T09:15:51.220Z,30.96
2018-08-31T09:18:29.681Z,30.94
2018-08-31T09:21:01.613Z,30.94
2018-08-31T09:23:34.015Z,30.92
2018-08-31T09:26:09.319Z,30.95
2018-08-31T09:28:40.939Z,30.95
2018-08-31T09:31:15.837Z,30.93
2018-08-31T09:33:47.713Z,30.93
2018-08-31T09:36:19.495Z,30.93
2018-08-31T09:38:51.207Z,30.93
2018-08-31T09:41:23.225Z,30.93
2018-08-31T09:43:56.246Z,30.94
2018-08-31T09:46:28.165Z,30.94
2018-08-31T09:49:00.079Z,30.94
2018-08-31T09:51:31.882Z,30.94
2018-08-31T09:54:03.767Z,30.96
2018-08-31T09:56:35.826Z,30.95
2018-08-31T09:59:07.821Z,30.91
2018-08-31T10:01:39.841Z,30.94
2018-08-31T10:04:11.670Z,30.95
2018-08-31T10:06:43.707Z,30.95
2018-08-31T10:09:15.646Z,30.95
2018-08-31T10:11:47.738Z,30.95
2018-08-31T10:14:19.395Z,30.93
2018-08-31T10:16:51.768Z,30.92
2018-08-31T10:19:23.428Z,30.93
2018-08-31T10:21:55.245Z,30.94
2018-08-31T10:24:26.800Z,30.94
2018-08-31T10:26:58.953Z,30.95
2018-08-31T10:29:31.438Z,30.93
2018-08-31T10:32:03.115Z,30.97
2018-08-31T10:34:35.002Z,30.95
2018-08-31T10:37:07.083Z,30.94
2018-08-31T10:39:38.941Z,30.95
2018-08-31T10:42:10.753Z,30.94
2018-08-31T10:44:42.422Z,30.94
2018-08-31T10:47:14.248Z,30.94
2018-08-31T10:49:46.176Z,30.95
2018-08-31T10:52:18.025Z,30.95
2018-08-31T10:54:49.878Z,30.95
2018-08-31T10:57:22.000Z,30.94
2018-08-31T10:59:54.213Z,30.93
2018-08-31T11:02:26.196Z,30.95
2018-08-31T11:04:57.931Z,30.95
2018-08-31T11:07:30.237Z,30.95
2018-08-31T11:10:01.935Z,30.96
2018-08-31T11:12:33.926Z,30.95
2018-08-31T11:15:06.141Z,30.98
2018-08-31T11:17:37.832Z,30.96
2018-08-31T11:20:09.994Z,30.98
2018-08-31T11:22:42.750Z,30.99
2018-08-31T11:25:14.661Z,30.98
2018-08-31T11:27:46.864Z,30.96
2018-08-31T11:30:19.115Z,30.95
2018-08-31T11:32:51.067Z,30.96
2018-08-31T11:35:23.209Z,30.97
2018-08-31T11:37:55.763Z,30.97
2018-08-31T11:40:27.830Z,30.98
2018-08-31T11:42:59.963Z,30.98
2018-08-31T11:45:32.064Z,30.91
2018-08-31T11:48:04.286Z,30.84
2018-08-31T11:50:35.987Z,30.91
2018-08-31T11:53:08.362Z,30.94
2018-08-31T11:55:40.122Z,30.93
2018-08-31T11:58:12.214Z,30.94
2018-08-31T12:00:44.017Z,30.95
2018-08-31T12:03:16.328Z,30.96
2018-08-31T12:05:48.211Z,30.96
2018-08-31T12:10:51.244Z,30.96
2018-08-31T12:13:22.998Z,30.99
2018-08-31T12:15:54.852Z,30.96
2018-08-31T12:18:26.899Z,30.92
2018-08-31T12:20:58.828Z,30.91
2018-08-31T12:23:31.629Z,30.94
2018-08-31T12:26:03.520Z,30.92
2018-08-31T12:28:35.088Z,30.92
2018-08-31T12:31:07.273Z,30.91
2018-08-31T12:33:39.218Z,30.93
2018-08-31T12:36:11.375Z,30.89
2018-08-31T12:38:44.207Z,30.92
2018-08-31T12:41:15.955Z,30.90
2018-08-31T12:43:48.639Z,30.93
2018-08-31T12:46:20.567Z,30.92
2018-08-31T12:48:53.882Z,30.95
2018-08-31T12:51:25.967Z,30.95
2018-08-31T12:53:57.985Z,30.94
2018-08-31T12:56:30.390Z,30.94
2018-08-31T12:59:02.469Z,30.94
2018-08-31T13:01:34.869Z,30.96
2018-08-31T13:04:07.755Z,30.96
2018-08-31T13:06:39.791Z,30.95
2018-08-31T13:09:11.317Z,30.94
2018-08-31T13:11:43.009Z,30.93
2018-08-31T13:14:14.649Z,30.92
2018-08-31T13:16:46.367Z,30.92
2018-08-31T13:19:18.041Z,30.93
2018-08-31T13:21:49.770Z,30.93
2018-08-31T13:24:22.551Z,30.92
2018-08-31T13:26:54.537Z,30.93
2018-08-31T13:29:26.498Z,30.93
2018-08-31T13:31:59.261Z,30.92
2018-08-31T13:34:31.281Z,30.92
2018-08-31T13:37:03.598Z,30.92
2018-08-31T13:39:35.916Z,30.92
2018-08-31T13:42:08.021Z,30.93
2018-08-31T13:44:39.815Z,30.91
2018-08-31T13:47:12.091Z,30.92
2018-08-31T13:49:43.842Z,30.92
2018-08-31T13:52:15.856Z,30.93
2018-08-31T13:54:47.686Z,30.91
2018-08-31T13:57:19.423Z,30.92
2018-08-31T13:59:51.764Z,30.92
2018-08-31T14:02:23.568Z,30.92
2018-08-31T14:04:55.524Z,30.89
2018-08-31T14:07:27.364Z,30.93
2018-08-31T14:09:59.147Z,30.92
2018-08-31T14:12:31.298Z,30.91
2018-08-31T14:15:03.545Z,30.89
2018-08-31T14:17:35.962Z,30.90
2018-08-31T14:20:07.803Z,30.91
2018-08-31T14:22:39.848Z,30.92
2018-08-31T14:25:12.428Z,30.90
2018-08-31T14:27:44.263Z,30.90
2018-08-31T14:30:16.143Z,30.91
2018-08-31T14:32:48.155Z,30.91
2018-08-31T14:35:20.183Z,30.92
2018-08-31T14:37:52.396Z,30.92
2018-08-31T14:40:24.389Z,30.92
2018-08-31T14:42:56.313Z,30.93
2018-08-31T14:45:28.397Z,30.92
2018-08-31T14:48:00.272Z,30.93
2018-08-31T14:50:32.231Z,30.93
2018-08-31T14:53:03.909Z,30.91
2018-08-31T14:55:35.718Z,30.91
2018-08-31T14:58:07.390Z,30.92
2018-08-31T15:00:39.478Z,30.92
2018-08-31T15:03:11.820Z,30.92
2018-08-31T15:05:43.986Z,30.89
2018-08-31T15:08:15.311Z,30.90
2018-08-31T15:10:47.678Z,30.88
2018-08-31T15:13:22.493Z,30.90
2018-08-31T15:15:54.621Z,30.92
2018-08-31T15:18:26.513Z,30.94
2018-08-31T15:20:58.504Z,30.92
2018-08-31T15:23:30.697Z,30.94
2018-08-31T15:26:03.270Z,30.94
2018-08-31T15:28:35.509Z,30.94
2018-08-31T15:31:07.302Z,30.94
2018-08-31T15:33:39.345Z,30.94
2018-08-31T15:36:12.304Z,30.90
2018-08-31T15:38:44.805Z,30.90
2018-08-31T15:41:17.397Z,30.89
2018-08-31T15:43:49.446Z,30.89
2018-08-31T15:46:21.798Z,30.89
2018-08-31T15:48:53.900Z,30.89
2018-08-31T15:51:26.007Z,30.88
2018-08-31T15:53:58.290Z,30.87
2018-08-31T15:56:30.270Z,30.89
2018-08-31T15:59:02.420Z,30.86
2018-08-31T16:01:34.800Z,30.91
2018-08-31T16:04:06.861Z,30.90
2018-08-31T16:06:39.277Z,30.89
2018-08-31T16:09:11.979Z,30.91
2018-08-31T16:11:44.093Z,30.90
2018-08-31T16:14:16.136Z,30.90
2018-08-31T16:16:48.113Z,30.88
2018-08-31T16:19:20.238Z,30.88
2018-08-31T16:21:52.987Z,30.87
2018-08-31T16:24:26.053Z,30.88
2018-08-31T16:26:58.785Z,30.89
2018-08-31T16:29:30.414Z,30.88
2018-08-31T16:32:02.106Z,30.89
2018-08-31T16:34:34.798Z,30.89
2018-08-31T16:37:07.131Z,30.89
2018-08-31T16:39:39.029Z,30.86
2018-08-31T16:42:10.703Z,30.87
2018-08-31T16:44:43.272Z,30.88
2018-08-31T16:47:18.201Z,30.89
2018-08-31T16:49:49.756Z,30.88
2018-08-31T16:52:21.297Z,30.89
2018-08-31T16:54:53.580Z,30.90
2018-08-31T16:57:25.306Z,30.89
2018-08-31T16:59:57.005Z,30.86
2018-08-31T17:02:29.250Z,30.87
2018-08-31T17:05:03.256Z,30.88
2018-08-31T17:07:35.498Z,30.83
2018-08-31T17:10:08.196Z,30.87
2018-08-31T17:12:40.563Z,30.87
2018-08-31T17:15:12.658Z,30.86
2018-08-31T17:17:45.065Z,30.85
2018-08-31T17:20:16.993Z,30.85
2018-08-31T17:22:49.012Z,30.87
2018-08-31T17:25:20.633Z,30.87
2018-08-31T17:27:57.246Z,30.88
2018-08-31T17:30:29.038Z,30.86
2018-08-31T17:34:06.748Z,30.83
2018-08-31T17:36:43.213Z,30.84
2018-08-31T17:39:16.285Z,30.86
2018-08-31T17:41:48.455Z,30.86
2018-08-31T17:44:20.669Z,30.87
2018-08-31T17:46:52.534Z,30.85
2018-08-31T17:49:25.214Z,30.86
2018-08-31T17:51:57.630Z,30.87
2018-08-31T17:54:29.528Z,30.86
2018-08-31T17:57:01.711Z,30.88
2018-08-31T17:59:33.484Z,30.87
2018-08-31T18:02:05.609Z,30.85
2018-08-31T18:04:37.800Z,30.86
2018-08-31T18:07:09.576Z,30.87
2018-08-31T18:09:42.383Z,30.84
2018-08-31T18:12:14.517Z,30.84
2018-08-31T18:14:47.597Z,30.82
2018-08-31T18:17:19.756Z,30.86
2018-08-31T18:19:51.795Z,30.88
2018-08-31T18:22:23.668Z,30.89
2018-08-31T18:24:56.085Z,30.86
2018-08-31T18:27:28.533Z,30.86
2018-08-31T18:30:00.670Z,30.87
2018-08-31T18:32:32.488Z,30.85
2018-08-31T18:35:04.560Z,30.86
2018-08-31T18:37:36.871Z,30.87
2018-08-31T18:40:09.949Z,30.85
2018-08-31T18:42:42.041Z,30.85
2018-08-31T18:45:14.439Z,30.86
2018-08-31T18:47:46.376Z,30.87
2018-08-31T18:50:18.973Z,30.84
2018-08-31T18:52:51.070Z,30.80
2018-08-31T18:55:23.506Z,30.85
2018-08-31T18:57:55.764Z,30.83
2018-08-31T19:00:28.670Z,30.82
2018-08-31T19:03:01.047Z,30.84
2018-08-31T19:05:33.024Z,30.82
2018-08-31T19:08:05.533Z,30.83
2018-08-31T19:10:37.617Z,30.84
2018-08-31T19:13:16.292Z,30.85
2018-08-31T19:15:50.952Z,30.85
2018-08-31T19:18:23.095Z,30.85
2018-08-31T19:20:57.355Z,30.84
2018-08-31T19:23:29.492Z,30.84
2018-08-31T19:26:02.231Z,30.83
2018-08-31T19:28:35.314Z,30.84
2018-08-31T19:31:07.666Z,30.84
2018-08-31T19:33:40.525Z,30.85
2018-08-31T19:36:12.759Z,30.83
2018-08-31T19:38:44.606Z,30.83
2018-08-31T19:41:18.371Z,30.83
2018-08-31T19:43:50.773Z,30.83
2018-08-31T19:46:22.675Z,30.83
2018-08-31T19:48:54.529Z,30.84
2018-08-31T19:51:27.197Z,30.82
2018-08-31T19:53:59.381Z,30.83
2018-08-31T19:56:31.998Z,30.84
2018-08-31T19:59:03.839Z,30.83
2018-08-31T20:01:35.648Z,30.81
2018-08-31T20:04:07.935Z,30.83
2018-08-31T20:06:40.262Z,30.82
2018-08-31T20:09:12.678Z,30.82
2018-08-31T20:11:44.756Z,30.82
2018-08-31T20:14:17.413Z,30.82
2018-08-31T20:16:49.753Z,30.81
2018-08-31T20:19:22.214Z,30.81
2018-08-31T20:21:54.257Z,30.79
2018-08-31T20:24:26.234Z,30.80
2018-08-31T20:26:59.254Z,30.80
2018-08-31T20:29:31.215Z,30.80
2018-08-31T20:32:03.911Z,30.80
2018-08-31T20:34:36.099Z,30.79
2018-08-31T20:37:08.239Z,30.80
2018-08-31T20:39:40.570Z,30.79
2018-08-31T20:42:13.234Z,30.80
2018-08-31T20:44:44.726Z,30.78
2018-08-31T20:47:18.382Z,30.79
2018-08-31T20:49:51.557Z,30.78
2018-08-31T20:52:24.052Z,30.79
2018-08-31T20:54:56.709Z,30.79
2018-08-31T20:57:29.524Z,30.77
2018-08-31T21:00:02.301Z,30.78
2018-08-31T21:02:34.188Z,30.76
2018-08-31T21:05:06.462Z,30.73
2018-08-31T21:07:38.747Z,30.76
2018-08-31T21:10:12.531Z,30.76
2018-08-31T21:12:44.242Z,30.76
2018-08-31T21:15:17.172Z,30.78
2018-08-31T21:17:48.873Z,30.75
2018-08-31T21:20:20.875Z,30.73
2018-08-31T21:22:52.981Z,30.73
2018-08-31T21:25:25.892Z,30.71
2018-08-31T21:27:57.661Z,30.73
2018-08-31T21:30:29.762Z,30.73
2018-08-31T21:33:02.070Z,30.76
2018-08-31T21:35:34.325Z,30.77
2018-08-31T21:40:44.755Z,30.75
2018-08-31T21:43:16.969Z,30.76
2018-08-31T21:45:48.860Z,30.76
2018-08-31T21:48:20.955Z,30.73
2018-08-31T21:50:53.589Z,30.73
2018-08-31T21:53:25.738Z,30.74
2018-08-31T21:55:57.364Z,30.73
2018-08-31T21:58:30.159Z,30.73
2018-08-31T22:01:07.648Z,30.74
2018-08-31T22:03:39.211Z,30.74
2018-08-31T22:06:11.605Z,30.72
2018-08-31T22:08:43.374Z,30.72
2018-08-31T22:11:15.229Z,30.72
2018-08-31T22:13:47.023Z,30.71
2018-08-31T22:16:19.259Z,30.71
2018-08-31T22:18:51.272Z,30.70
2018-08-31T22:21:23.367Z,30.70
2018-08-31T22:23:55.751Z,30.69
2018-08-31T22:26:27.745Z,30.71
2018-08-31T22:28:59.705Z,30.71
2018-08-31T22:31:31.448Z,30.72
2018-08-31T22:34:03.302Z,30.71
2018-08-31T22:36:34.982Z,30.73
2018-08-31T22:39:08.473Z,30.71
2018-08-31T22:41:40.075Z,30.71
2018-08-31T22:44:11.826Z,30.70
2018-08-31T22:46:43.663Z,30.71
2018-08-31T22:49:15.639Z,30.69
2018-08-31T22:51:47.081Z,30.69
2018-08-31T22:54:19.281Z,30.69
2018-08-31T22:56:51.384Z,30.69
2018-08-31T22:59:23.589Z,30.68
2018-08-31T23:01:55.193Z,30.68
2018-08-31T23:04:26.844Z,30.68
2018-08-31T23:06:58.654Z,30.65
2018-08-31T23:09:30.874Z,30.65
2018-08-31T23:12:03.156Z,30.67
2018-08-31T23:14:35.631Z,30.67
2018-08-31T23:17:07.753Z,30.65
2018-08-31T23:19:39.574Z,30.67
2018-08-31T23:22:12.019Z,30.69
2018-08-31T23:24:44.007Z,30.64
2018-08-31T23:27:15.800Z,30.64
2018-08-31T23:29:47.627Z,30.64
2018-08-31T23:32:19.572Z,30.67
2018-08-31T23:34:51.809Z,30.64
2018-08-31T23:37:23.844Z,30.68
2018-08-31T23:39:56.011Z,30.67
2018-08-31T23:42:28.021Z,30.66
2018-08-31T23:44:59.986Z,30.64
2018-08-31T23:47:31.619Z,30.62
2018-08-31T23:50:03.451Z,30.63
2018-08-31T23:52:34.876Z,30.62
2018-08-31T23:55:06.896Z,30.59
2018-08-31T23:57:39.062Z,30.58
